Aylmer, North Dakota
Current Conditions -  °F | °C
As of 1:55 AM on Friday 31 Oct 2014 (Local Time) from K5H4 Reporting Station
Clear Clear  
Wind Chill: -16°   Ceiling: Unl
Heat Index: -11°   Visibility: 10mi
Dew Point: -12°   Wind: 6mph
Humidity: 92%   Direction: 210°SSW
Pressure: 30.58"   Gusts: NA
Location:  47.8487°N, 100.262°W
Report Text: K5H4 310655Z AUTO 21005KT 10SM CLR M11/M12 A3058 RMK AO2
Loading
Personal Weather Stations






























Interactive Weather Map
Tropical Storm Tracking
New forecast layout! Learn more

10-Day Weather Forecast

Advertisements
Track Severe Weather on mobile